sensor_id;sensor_type;location;lat;lon;timestamp;P1;durP1;ratioP1;P2;durP2;ratioP2
50649;SDS011;36621;60.058;30.346;2022-12-07T00:07:07;17.70;;;10.25;;
50649;SDS011;36621;60.058;30.346;2022-12-07T00:14:39;18.42;;;11.05;;
50649;SDS011;36621;60.058;30.346;2022-12-07T00:22:12;17.50;;;10.77;;
50649;SDS011;36621;60.058;30.346;2022-12-07T00:29:46;18.75;;;10.85;;
50649;SDS011;36621;60.058;30.346;2022-12-07T00:37:19;20.45;;;11.13;;
50649;SDS011;36621;60.058;30.346;2022-12-07T00:44:51;32.03;;;15.13;;
50649;SDS011;36621;60.058;30.346;2022-12-07T00:52:24;19.27;;;11.65;;
50649;SDS011;36621;60.058;30.346;2022-12-07T00:59:57;16.63;;;10.55;;
50649;SDS011;36621;60.058;30.346;2022-12-07T01:07:30;18.27;;;11.32;;
50649;SDS011;36621;60.058;30.346;2022-12-07T01:15:03;17.90;;;11.40;;
50649;SDS011;36621;60.058;30.346;2022-12-07T01:22:37;16.65;;;10.80;;
50649;SDS011;36621;60.058;30.346;2022-12-07T01:30:10;17.80;;;10.55;;
50649;SDS011;36621;60.058;30.346;2022-12-07T01:37:44;18.70;;;10.60;;
50649;SDS011;36621;60.058;30.346;2022-12-07T01:45:36;16.40;;;10.20;;
50649;SDS011;36621;60.058;30.346;2022-12-07T01:53:11;14.50;;;9.77;;
50649;SDS011;36621;60.058;30.346;2022-12-07T02:00:44;16.45;;;10.85;;
50649;SDS011;36621;60.058;30.346;2022-12-07T02:08:17;15.65;;;10.05;;
50649;SDS011;36621;60.058;30.346;2022-12-07T02:15:59;12.90;;;9.18;;
50649;SDS011;36621;60.058;30.346;2022-12-07T02:24:11;16.38;;;9.93;;
50649;SDS011;36621;60.058;30.346;2022-12-07T02:31:53;18.80;;;9.97;;
50649;SDS011;36621;60.058;30.346;2022-12-07T02:39:33;15.88;;;9.50;;
50649;SDS011;36621;60.058;30.346;2022-12-07T02:47:13;14.63;;;9.98;;
50649;SDS011;36621;60.058;30.346;2022-12-07T02:54:48;16.02;;;9.93;;
50649;SDS011;36621;60.058;30.346;2022-12-07T03:02:23;16.65;;;9.73;;
50649;SDS011;36621;60.058;30.346;2022-12-07T03:10:07;17.00;;;10.43;;
50649;SDS011;36621;60.058;30.346;2022-12-07T03:17:46;13.85;;;8.82;;
50649;SDS011;36621;60.058;30.346;2022-12-07T03:25:22;13.80;;;8.18;;
50649;SDS011;36621;60.058;30.346;2022-12-07T03:32:56;11.98;;;8.15;;
50649;SDS011;36621;60.058;30.346;2022-12-07T03:40:33;12.77;;;8.82;;
50649;SDS011;36621;60.058;30.346;2022-12-07T03:48:11;15.13;;;9.38;;
50649;SDS011;36621;60.058;30.346;2022-12-07T03:55:52;14.10;;;8.75;;
50649;SDS011;36621;60.058;30.346;2022-12-07T04:03:26;11.57;;;8.00;;
50649;SDS011;36621;60.058;30.346;2022-12-07T04:10:58;15.25;;;8.52;;
50649;SDS011;36621;60.058;30.346;2022-12-07T04:18:31;12.40;;;7.53;;
50649;SDS011;36621;60.058;30.346;2022-12-07T04:26:04;12.05;;;7.30;;
50649;SDS011;36621;60.058;30.346;2022-12-07T04:33:37;12.80;;;8.73;;
50649;SDS011;36621;60.058;30.346;2022-12-07T04:41:10;13.15;;;8.57;;
50649;SDS011;36621;60.058;30.346;2022-12-07T04:48:45;14.10;;;8.82;;
50649;SDS011;36621;60.058;30.346;2022-12-07T04:56:17;12.07;;;7.95;;
50649;SDS011;36621;60.058;30.346;2022-12-07T05:03:51;14.32;;;8.13;;
50649;SDS011;36621;60.058;30.346;2022-12-07T05:11:24;13.82;;;8.05;;
50649;SDS011;36621;60.058;30.346;2022-12-07T05:19:12;11.95;;;8.35;;
50649;SDS011;36621;60.058;30.346;2022-12-07T05:26:45;12.30;;;7.85;;
50649;SDS011;36621;60.058;30.346;2022-12-07T05:34:19;14.48;;;8.45;;
50649;SDS011;36621;60.058;30.346;2022-12-07T05:41:51;14.02;;;9.10;;
50649;SDS011;36621;60.058;30.346;2022-12-07T05:49:43;15.32;;;8.75;;
50649;SDS011;36621;60.058;30.346;2022-12-07T05:57:15;14.57;;;9.38;;
50649;SDS011;36621;60.058;30.346;2022-12-07T06:04:48;27.33;;;14.00;;
50649;SDS011;36621;60.058;30.346;2022-12-07T06:12:20;16.00;;;8.60;;
50649;SDS011;36621;60.058;30.346;2022-12-07T06:20:07;15.52;;;8.68;;
50649;SDS011;36621;60.058;30.346;2022-12-07T06:27:39;14.68;;;8.07;;
50649;SDS011;36621;60.058;30.346;2022-12-07T06:35:13;17.23;;;8.90;;
50649;SDS011;36621;60.058;30.346;2022-12-07T06:42:45;11.27;;;7.93;;
50649;SDS011;36621;60.058;30.346;2022-12-07T06:50:21;13.38;;;7.47;;
50649;SDS011;36621;60.058;30.346;2022-12-07T06:57:54;13.27;;;8.02;;
50649;SDS011;36621;60.058;30.346;2022-12-07T07:05:27;12.55;;;7.93;;
50649;SDS011;36621;60.058;30.346;2022-12-07T15:50:35;17.13;;;9.55;;
50649;SDS011;36621;60.058;30.346;2022-12-07T15:58:07;18.13;;;9.57;;
50649;SDS011;36621;60.058;30.346;2022-12-07T16:05:40;13.88;;;9.25;;
50649;SDS011;36621;60.058;30.346;2022-12-07T16:13:20;16.80;;;9.02;;
50649;SDS011;36621;60.058;30.346;2022-12-07T16:20:53;17.63;;;9.68;;
50649;SDS011;36621;60.058;30.346;2022-12-07T16:28:27;10.85;;;7.32;;
50649;SDS011;36621;60.058;30.346;2022-12-07T16:36:01;13.25;;;8.43;;
50649;SDS011;36621;60.058;30.346;2022-12-07T16:43:34;11.55;;;7.60;;
50649;SDS011;36621;60.058;30.346;2022-12-07T16:51:09;14.95;;;7.93;;
50649;SDS011;36621;60.058;30.346;2022-12-07T16:58:45;15.98;;;10.65;;
50649;SDS011;36621;60.058;30.346;2022-12-07T17:06:22;17.48;;;8.80;;
50649;SDS011;36621;60.058;30.346;2022-12-07T17:13:56;12.02;;;7.82;;
50649;SDS011;36621;60.058;30.346;2022-12-07T17:21:49;15.40;;;8.73;;
50649;SDS011;36621;60.058;30.346;2022-12-07T17:29:22;10.55;;;7.15;;
50649;SDS011;36621;60.058;30.346;2022-12-07T17:36:55;16.85;;;7.40;;
50649;SDS011;36621;60.058;30.346;2022-12-07T17:44:29;12.00;;;7.93;;
50649;SDS011;36621;60.058;30.346;2022-12-07T17:52:03;12.52;;;7.50;;
50649;SDS011;36621;60.058;30.346;2022-12-07T17:59:53;15.48;;;8.18;;
50649;SDS011;36621;60.058;30.346;2022-12-07T18:07:26;8.35;;;6.28;;
50649;SDS011;36621;60.058;30.346;2022-12-07T18:14:59;10.05;;;6.35;;
50649;SDS011;36621;60.058;30.346;2022-12-07T18:22:32;12.20;;;5.95;;
50649;SDS011;36621;60.058;30.346;2022-12-07T18:30:07;10.15;;;6.10;;
50649;SDS011;36621;60.058;30.346;2022-12-07T18:37:40;10.77;;;6.90;;
50649;SDS011;36621;60.058;30.346;2022-12-07T18:45:13;12.10;;;6.82;;
50649;SDS011;36621;60.058;30.346;2022-12-07T18:52:46;13.13;;;6.65;;
50649;SDS011;36621;60.058;30.346;2022-12-07T19:00:19;10.50;;;6.57;;
50649;SDS011;36621;60.058;30.346;2022-12-07T19:07:54;11.48;;;6.35;;
50649;SDS011;36621;60.058;30.346;2022-12-07T19:15:28;12.73;;;7.00;;
50649;SDS011;36621;60.058;30.346;2022-12-07T19:23:05;12.95;;;6.50;;
50649;SDS011;36621;60.058;30.346;2022-12-07T19:30:39;10.60;;;6.30;;
50649;SDS011;36621;60.058;30.346;2022-12-07T19:38:12;10.27;;;6.28;;
50649;SDS011;36621;60.058;30.346;2022-12-07T19:45:45;9.55;;;5.72;;
50649;SDS011;36621;60.058;30.346;2022-12-07T19:53:18;9.90;;;6.40;;
50649;SDS011;36621;60.058;30.346;2022-12-07T20:00:50;10.70;;;6.38;;
50649;SDS011;36621;60.058;30.346;2022-12-07T20:08:25;11.10;;;6.97;;
50649;SDS011;36621;60.058;30.346;2022-12-07T20:16:01;10.68;;;6.03;;
50649;SDS011;36621;60.058;30.346;2022-12-07T20:23:36;11.88;;;6.97;;
50649;SDS011;36621;60.058;30.346;2022-12-07T20:31:10;10.55;;;6.13;;
50649;SDS011;36621;60.058;30.346;2022-12-07T20:38:46;10.55;;;6.93;;
50649;SDS011;36621;60.058;30.346;2022-12-07T20:46:20;11.85;;;6.68;;
50649;SDS011;36621;60.058;30.346;2022-12-07T20:53:53;11.98;;;5.97;;
50649;SDS011;36621;60.058;30.346;2022-12-07T21:01:26;10.95;;;6.18;;
50649;SDS011;36621;60.058;30.346;2022-12-07T21:09:00;10.07;;;5.68;;
50649;SDS011;36621;60.058;30.346;2022-12-07T21:16:32;13.30;;;6.47;;
50649;SDS011;36621;60.058;30.346;2022-12-07T21:24:05;9.68;;;5.32;;
50649;SDS011;36621;60.058;30.346;2022-12-07T21:31:38;7.90;;;5.53;;
50649;SDS011;36621;60.058;30.346;2022-12-07T21:39:11;7.88;;;5.00;;
50649;SDS011;36621;60.058;30.346;2022-12-07T21:46:44;9.82;;;5.93;;
50649;SDS011;36621;60.058;30.346;2022-12-07T21:54:17;9.32;;;5.93;;
50649;SDS011;36621;60.058;30.346;2022-12-07T22:01:49;11.00;;;6.28;;
50649;SDS011;36621;60.058;30.346;2022-12-07T22:09:23;10.43;;;5.78;;
50649;SDS011;36621;60.058;30.346;2022-12-07T22:16:55;11.30;;;6.18;;
50649;SDS011;36621;60.058;30.346;2022-12-07T22:24:29;9.55;;;5.95;;
50649;SDS011;36621;60.058;30.346;2022-12-07T22:32:01;11.40;;;6.90;;
50649;SDS011;36621;60.058;30.346;2022-12-07T22:39:34;10.40;;;6.78;;
50649;SDS011;36621;60.058;30.346;2022-12-07T22:47:07;11.63;;;7.03;;
50649;SDS011;36621;60.058;30.346;2022-12-07T22:54:40;7.70;;;4.15;;
50649;SDS011;36621;60.058;30.346;2022-12-07T23:02:14;8.77;;;5.93;;
50649;SDS011;36621;60.058;30.346;2022-12-07T23:09:50;10.57;;;6.18;;
50649;SDS011;36621;60.058;30.346;2022-12-07T23:17:36;11.75;;;6.05;;
50649;SDS011;36621;60.058;30.346;2022-12-07T23:25:09;10.32;;;6.22;;
50649;SDS011;36621;60.058;30.346;2022-12-07T23:32:43;8.45;;;5.45;;
50649;SDS011;36621;60.058;30.346;2022-12-07T23:40:16;11.00;;;5.88;;
50649;SDS011;36621;60.058;30.346;2022-12-07T23:47:49;11.55;;;5.70;;
50649;SDS011;36621;60.058;30.346;2022-12-07T23:55:22;11.65;;;6.32;;
